sensor_id;sensor_type;location;lat;lon;timestamp;P1;durP1;ratioP1;P2;durP2;ratioP2
17564;SDS011;62994;52.126;5.596;2023-04-15T00:00:25;5.40;;;4.50;;
17564;SDS011;62994;52.126;5.596;2023-04-15T00:02:53;5.72;;;4.38;;
17564;SDS011;62994;52.126;5.596;2023-04-15T00:05:20;7.22;;;4.78;;
17564;SDS011;62994;52.126;5.596;2023-04-15T00:07:51;8.48;;;4.72;;
17564;SDS011;62994;52.126;5.596;2023-04-15T00:10:18;5.28;;;4.82;;
17564;SDS011;62994;52.126;5.596;2023-04-15T00:12:46;4.47;;;4.10;;
17564;SDS011;62994;52.126;5.596;2023-04-15T00:15:13;6.00;;;5.45;;
17564;SDS011;62994;52.126;5.596;2023-04-15T00:17:40;5.95;;;5.20;;
17564;SDS011;62994;52.126;5.596;2023-04-15T00:20:07;9.90;;;5.30;;
17564;SDS011;62994;52.126;5.596;2023-04-15T00:22:35;14.75;;;5.80;;
17564;SDS011;62994;52.126;5.596;2023-04-15T00:25:04;5.00;;;4.60;;
17564;SDS011;62994;52.126;5.596;2023-04-15T00:27:31;7.60;;;4.95;;
17564;SDS011;62994;52.126;5.596;2023-04-15T00:29:58;5.15;;;4.70;;
17564;SDS011;62994;52.126;5.596;2023-04-15T00:32:26;5.47;;;4.90;;
17564;SDS011;62994;52.126;5.596;2023-04-15T00:34:53;8.25;;;5.55;;
17564;SDS011;62994;52.126;5.596;2023-04-15T00:37:20;7.60;;;5.00;;
17564;SDS011;62994;52.126;5.596;2023-04-15T00:39:47;5.38;;;4.47;;
17564;SDS011;62994;52.126;5.596;2023-04-15T00:42:16;5.32;;;4.82;;
17564;SDS011;62994;52.126;5.596;2023-04-15T00:44:45;6.03;;;5.05;;
17564;SDS011;62994;52.126;5.596;2023-04-15T00:47:12;5.65;;;5.18;;
17564;SDS011;62994;52.126;5.596;2023-04-15T00:49:41;5.65;;;5.13;;
17564;SDS011;62994;52.126;5.596;2023-04-15T00:52:08;5.40;;;4.97;;
17564;SDS011;62994;52.126;5.596;2023-04-15T00:54:35;6.13;;;5.47;;
17564;SDS011;62994;52.126;5.596;2023-04-15T00:57:04;5.78;;;5.28;;
17564;SDS011;62994;52.126;5.596;2023-04-15T00:59:33;5.03;;;4.63;;
17564;SDS011;62994;52.126;5.596;2023-04-15T01:02:01;5.72;;;5.22;;
17564;SDS011;62994;52.126;5.596;2023-04-15T01:04:28;6.05;;;5.55;;
17564;SDS011;62994;52.126;5.596;2023-04-15T01:06:56;6.07;;;5.57;;
17564;SDS011;62994;52.126;5.596;2023-04-15T01:09:26;6.60;;;5.28;;
17564;SDS011;62994;52.126;5.596;2023-04-15T01:11:53;11.68;;;5.80;;
17564;SDS011;62994;52.126;5.596;2023-04-15T01:14:21;11.90;;;6.43;;
17564;SDS011;62994;52.126;5.596;2023-04-15T01:16:50;6.45;;;5.22;;
17564;SDS011;62994;52.126;5.596;2023-04-15T01:19:18;7.07;;;5.82;;
17564;SDS011;62994;52.126;5.596;2023-04-15T01:21:45;5.78;;;5.28;;
17564;SDS011;62994;52.126;5.596;2023-04-15T01:24:12;5.78;;;5.20;;
17564;SDS011;62994;52.126;5.596;2023-04-15T01:26:44;8.23;;;5.18;;
17564;SDS011;62994;52.126;5.596;2023-04-15T01:29:12;5.45;;;4.95;;
17564;SDS011;62994;52.126;5.596;2023-04-15T01:31:39;10.07;;;5.25;;
17564;SDS011;62994;52.126;5.596;2023-04-15T01:34:07;6.28;;;5.60;;
17564;SDS011;62994;52.126;5.596;2023-04-15T01:36:34;7.75;;;5.05;;
17564;SDS011;62994;52.126;5.596;2023-04-15T01:39:01;12.25;;;5.50;;
17564;SDS011;62994;52.126;5.596;2023-04-15T01:41:31;8.18;;;5.40;;
17564;SDS011;62994;52.126;5.596;2023-04-15T01:43:59;9.20;;;5.55;;
17564;SDS011;62994;52.126;5.596;2023-04-15T01:46:26;11.38;;;5.32;;
17564;SDS011;62994;52.126;5.596;2023-04-15T01:48:53;5.68;;;4.95;;
17564;SDS011;62994;52.126;5.596;2023-04-15T01:51:21;6.68;;;6.00;;
17564;SDS011;62994;52.126;5.596;2023-04-15T01:53:48;6.45;;;5.90;;
17564;SDS011;62994;52.126;5.596;2023-04-15T01:56:15;6.47;;;5.15;;
17564;SDS011;62994;52.126;5.596;2023-04-15T01:58:42;5.50;;;5.07;;
17564;SDS011;62994;52.126;5.596;2023-04-15T02:01:11;5.45;;;5.03;;
17564;SDS011;62994;52.126;5.596;2023-04-15T02:03:39;6.45;;;5.82;;
17564;SDS011;62994;52.126;5.596;2023-04-15T02:06:06;5.97;;;5.05;;
17564;SDS011;62994;52.126;5.596;2023-04-15T02:08:33;5.13;;;4.80;;
17564;SDS011;62994;52.126;5.596;2023-04-15T02:11:00;5.95;;;5.22;;
17564;SDS011;62994;52.126;5.596;2023-04-15T02:13:27;7.15;;;5.18;;
17564;SDS011;62994;52.126;5.596;2023-04-15T02:15:54;5.53;;;5.10;;
17564;SDS011;62994;52.126;5.596;2023-04-15T02:18:23;6.18;;;5.60;;
17564;SDS011;62994;52.126;5.596;2023-04-15T02:20:51;4.82;;;4.40;;
17564;SDS011;62994;52.126;5.596;2023-04-15T02:23:18;5.45;;;5.03;;
17564;SDS011;62994;52.126;5.596;2023-04-15T02:25:45;5.65;;;5.22;;
17564;SDS011;62994;52.126;5.596;2023-04-15T02:28:12;9.05;;;5.70;;
17564;SDS011;62994;52.126;5.596;2023-04-15T02:30:39;5.63;;;5.10;;
17564;SDS011;62994;52.126;5.596;2023-04-15T02:33:06;6.05;;;5.45;;
17564;SDS011;62994;52.126;5.596;2023-04-15T02:35:35;6.50;;;5.32;;
17564;SDS011;62994;52.126;5.596;2023-04-15T02:38:06;5.93;;;5.40;;
17564;SDS011;62994;52.126;5.596;2023-04-15T02:40:33;5.40;;;5.00;;
17564;SDS011;62994;52.126;5.596;2023-04-15T02:43:00;10.52;;;5.78;;
17564;SDS011;62994;52.126;5.596;2023-04-15T02:45:27;9.18;;;5.28;;
17564;SDS011;62994;52.126;5.596;2023-04-15T02:47:54;5.28;;;4.85;;
17564;SDS011;62994;52.126;5.596;2023-04-15T02:50:25;7.53;;;5.43;;
17564;SDS011;62994;52.126;5.596;2023-04-15T02:52:53;6.47;;;5.88;;
17564;SDS011;62994;52.126;5.596;2023-04-15T02:55:20;6.05;;;5.65;;
17564;SDS011;62994;52.126;5.596;2023-04-15T02:57:47;6.40;;;5.10;;
17564;SDS011;62994;52.126;5.596;2023-04-15T03:00:15;6.10;;;5.50;;
17564;SDS011;62994;52.126;5.596;2023-04-15T03:02:43;5.68;;;5.22;;
17564;SDS011;62994;52.126;5.596;2023-04-15T03:05:11;9.63;;;5.40;;
17564;SDS011;62994;52.126;5.596;2023-04-15T03:07:39;6.47;;;5.93;;
17564;SDS011;62994;52.126;5.596;2023-04-15T03:10:08;5.72;;;5.35;;
17564;SDS011;62994;52.126;5.596;2023-04-15T03:12:36;6.65;;;5.95;;
17564;SDS011;62994;52.126;5.596;2023-04-15T03:15:03;5.65;;;5.25;;
17564;SDS011;62994;52.126;5.596;2023-04-15T03:17:31;6.00;;;5.50;;
17564;SDS011;62994;52.126;5.596;2023-04-15T03:19:58;6.93;;;5.25;;
17564;SDS011;62994;52.126;5.596;2023-04-15T03:22:26;6.00;;;5.40;;
17564;SDS011;62994;52.126;5.596;2023-04-15T03:24:53;6.03;;;5.53;;
17564;SDS011;62994;52.126;5.596;2023-04-15T03:27:21;6.47;;;5.25;;
17564;SDS011;62994;52.126;5.596;2023-04-15T03:29:48;5.50;;;5.10;;
17564;SDS011;62994;52.126;5.596;2023-04-15T03:32:15;6.80;;;5.75;;
17564;SDS011;62994;52.126;5.596;2023-04-15T03:34:43;6.50;;;5.88;;
17564;SDS011;62994;52.126;5.596;2023-04-15T03:37:10;6.35;;;5.22;;
17564;SDS011;62994;52.126;5.596;2023-04-15T03:39:37;6.32;;;5.85;;
17564;SDS011;62994;52.126;5.596;2023-04-15T03:42:06;5.88;;;5.47;;
17564;SDS011;62994;52.126;5.596;2023-04-15T03:44:34;6.38;;;5.25;;
17564;SDS011;62994;52.126;5.596;2023-04-15T03:47:01;5.93;;;5.50;;
17564;SDS011;62994;52.126;5.596;2023-04-15T03:49:28;11.32;;;5.72;;
17564;SDS011;62994;52.126;5.596;2023-04-15T03:51:55;6.85;;;5.45;;
17564;SDS011;62994;52.126;5.596;2023-04-15T03:54:22;6.70;;;6.05;;
17564;SDS011;62994;52.126;5.596;2023-04-15T03:56:49;6.15;;;5.75;;
17564;SDS011;62994;52.126;5.596;2023-04-15T03:59:16;6.25;;;5.78;;
17564;SDS011;62994;52.126;5.596;2023-04-15T04:01:45;5.93;;;5.43;;
17564;SDS011;62994;52.126;5.596;2023-04-15T04:04:11;6.93;;;5.82;;
17564;SDS011;62994;52.126;5.596;2023-04-15T04:06:39;6.05;;;5.65;;
17564;SDS011;62994;52.126;5.596;2023-04-15T04:09:06;6.15;;;5.60;;
17564;SDS011;62994;52.126;5.596;2023-04-15T04:11:33;8.38;;;6.30;;
17564;SDS011;62994;52.126;5.596;2023-04-15T04:14:00;6.60;;;5.82;;
17564;SDS011;62994;52.126;5.596;2023-04-15T04:16:27;5.97;;;5.57;;
17564;SDS011;62994;52.126;5.596;2023-04-15T04:18:56;6.68;;;6.07;;
17564;SDS011;62994;52.126;5.596;2023-04-15T04:21:23;9.25;;;6.93;;
17564;SDS011;62994;52.126;5.596;2023-04-15T04:23:50;7.07;;;6.47;;
17564;SDS011;62994;52.126;5.596;2023-04-15T04:26:17;6.90;;;6.30;;
17564;SDS011;62994;52.126;5.596;2023-04-15T04:28:44;6.82;;;6.18;;
17564;SDS011;62994;52.126;5.596;2023-04-15T04:31:11;6.75;;;6.15;;
17564;SDS011;62994;52.126;5.596;2023-04-15T04:33:39;6.30;;;5.55;;
17564;SDS011;62994;52.126;5.596;2023-04-15T04:36:07;6.80;;;6.15;;
17564;SDS011;62994;52.126;5.596;2023-04-15T04:38:34;6.88;;;6.28;;
17564;SDS011;62994;52.126;5.596;2023-04-15T04:41:01;6.32;;;5.80;;
17564;SDS011;62994;52.126;5.596;2023-04-15T04:43:28;6.75;;;6.15;;
17564;SDS011;62994;52.126;5.596;2023-04-15T04:45:56;7.07;;;5.88;;
17564;SDS011;62994;52.126;5.596;2023-04-15T04:48:23;6.90;;;6.30;;
17564;SDS011;62994;52.126;5.596;2023-04-15T04:50:50;6.90;;;6.50;;
17564;SDS011;62994;52.126;5.596;2023-04-15T04:53:18;6.60;;;6.10;;
17564;SDS011;62994;52.126;5.596;2023-04-15T04:55:45;6.30;;;5.88;;
17564;SDS011;62994;52.126;5.596;2023-04-15T04:58:12;6.60;;;6.10;;
17564;SDS011;62994;52.126;5.596;2023-04-15T05:00:39;9.15;;;6.90;;
17564;SDS011;62994;52.126;5.596;2023-04-15T05:03:06;9.38;;;6.70;;
17564;SDS011;62994;52.126;5.596;2023-04-15T05:05:33;7.15;;;6.30;;
17564;SDS011;62994;52.126;5.596;2023-04-15T05:08:13;6.55;;;6.05;;
17564;SDS011;62994;52.126;5.596;2023-04-15T05:10:41;6.00;;;5.60;;
17564;SDS011;62994;52.126;5.596;2023-04-15T05:13:08;7.22;;;6.63;;
17564;SDS011;62994;52.126;5.596;2023-04-15T05:15:41;7.28;;;6.53;;
17564;SDS011;62994;52.126;5.596;2023-04-15T05:18:08;5.85;;;5.50;;
17564;SDS011;62994;52.126;5.596;2023-04-15T05:20:36;7.07;;;6.35;;
17564;SDS011;62994;52.126;5.596;2023-04-15T05:23:03;6.68;;;6.07;;
17564;SDS011;62994;52.126;5.596;2023-04-15T05:25:30;6.40;;;5.90;;
17564;SDS011;62994;52.126;5.596;2023-04-15T05:27:58;6.85;;;6.28;;
17564;SDS011;62994;52.126;5.596;2023-04-15T05:30:25;7.22;;;6.63;;
17564;SDS011;62994;52.126;5.596;2023-04-15T05:32:52;8.73;;;6.35;;
17564;SDS011;62994;52.126;5.596;2023-04-15T05:35:19;6.82;;;6.15;;
17564;SDS011;62994;52.126;5.596;2023-04-15T05:37:47;7.25;;;6.55;;
17564;SDS011;62994;52.126;5.596;2023-04-15T05:40:14;7.25;;;6.68;;
17564;SDS011;62994;52.126;5.596;2023-04-15T05:42:41;6.55;;;6.13;;
17564;SDS011;62994;52.126;5.596;2023-04-15T05:45:10;8.88;;;6.57;;
17564;SDS011;62994;52.126;5.596;2023-04-15T05:47:37;7.18;;;6.55;;
17564;SDS011;62994;52.126;5.596;2023-04-15T05:50:05;8.05;;;7.22;;
17564;SDS011;62994;52.126;5.596;2023-04-15T05:52:32;7.55;;;7.03;;
17564;SDS011;62994;52.126;5.596;2023-04-15T05:54:59;11.38;;;7.45;;
17564;SDS011;62994;52.126;5.596;2023-04-15T05:57:26;7.57;;;7.07;;
17564;SDS011;62994;52.126;5.596;2023-04-15T05:59:53;7.43;;;6.88;;
17564;SDS011;62994;52.126;5.596;2023-04-15T06:02:23;7.47;;;7.00;;
17564;SDS011;62994;52.126;5.596;2023-04-15T06:04:50;8.00;;;7.50;;
17564;SDS011;62994;52.126;5.596;2023-04-15T06:07:17;8.10;;;7.40;;
17564;SDS011;62994;52.126;5.596;2023-04-15T06:09:44;8.73;;;7.90;;
17564;SDS011;62994;52.126;5.596;2023-04-15T06:12:14;7.25;;;6.82;;
17564;SDS011;62994;52.126;5.596;2023-04-15T06:14:41;7.93;;;7.07;;
17564;SDS011;62994;52.126;5.596;2023-04-15T06:17:09;8.73;;;7.80;;
17564;SDS011;62994;52.126;5.596;2023-04-15T06:19:40;8.40;;;7.65;;
17564;SDS011;62994;52.126;5.596;2023-04-15T06:22:08;9.38;;;8.45;;
17564;SDS011;62994;52.126;5.596;2023-04-15T06:24:35;8.85;;;7.95;;
17564;SDS011;62994;52.126;5.596;2023-04-15T06:27:02;8.52;;;7.93;;
17564;SDS011;62994;52.126;5.596;2023-04-15T06:29:29;9.57;;;8.75;;
17564;SDS011;62994;52.126;5.596;2023-04-15T06:31:56;8.10;;;7.60;;
17564;SDS011;62994;52.126;5.596;2023-04-15T06:34:26;9.57;;;8.60;;
17564;SDS011;62994;52.126;5.596;2023-04-15T06:37:00;10.95;;;7.90;;
17564;SDS011;62994;52.126;5.596;2023-04-15T06:39:27;10.00;;;9.07;;
17564;SDS011;62994;52.126;5.596;2023-04-15T06:41:54;8.52;;;7.82;;
17564;SDS011;62994;52.126;5.596;2023-04-15T06:44:21;12.52;;;8.00;;
17564;SDS011;62994;52.126;5.596;2023-04-15T06:46:48;8.30;;;7.70;;
17564;SDS011;62994;52.126;5.596;2023-04-15T06:49:15;10.40;;;8.27;;
17564;SDS011;62994;52.126;5.596;2023-04-15T06:51:42;8.10;;;7.40;;
17564;SDS011;62994;52.126;5.596;2023-04-15T06:54:10;8.95;;;8.20;;
17564;SDS011;62994;52.126;5.596;2023-04-15T06:56:37;9.27;;;8.38;;
17564;SDS011;62994;52.126;5.596;2023-04-15T06:59:06;10.70;;;8.60;;
17564;SDS011;62994;52.126;5.596;2023-04-15T07:01:33;9.05;;;8.25;;
17564;SDS011;62994;52.126;5.596;2023-04-15T07:03:59;9.02;;;8.23;;
17564;SDS011;62994;52.126;5.596;2023-04-15T07:06:26;12.38;;;8.38;;
17564;SDS011;62994;52.126;5.596;2023-04-15T07:08:53;9.20;;;8.00;;
17564;SDS011;62994;52.126;5.596;2023-04-15T07:11:24;9.00;;;8.30;;
17564;SDS011;62994;52.126;5.596;2023-04-15T07:13:51;8.95;;;8.15;;
17564;SDS011;62994;52.126;5.596;2023-04-15T07:16:18;8.35;;;7.55;;
17564;SDS011;62994;52.126;5.596;2023-04-15T07:18:46;15.13;;;8.25;;
17564;SDS011;62994;52.126;5.596;2023-04-15T07:21:12;8.07;;;7.47;;
17564;SDS011;62994;52.126;5.596;2023-04-15T07:23:40;8.05;;;7.40;;
17564;SDS011;62994;52.126;5.596;2023-04-15T07:26:08;7.80;;;7.07;;
17564;SDS011;62994;52.126;5.596;2023-04-15T07:28:36;8.02;;;7.32;;
17564;SDS011;62994;52.126;5.596;2023-04-15T07:31:03;7.10;;;6.60;;
17564;SDS011;62994;52.126;5.596;2023-04-15T07:33:30;5.85;;;5.45;;
17564;SDS011;62994;52.126;5.596;2023-04-15T07:35:58;6.03;;;5.55;;
17564;SDS011;62994;52.126;5.596;2023-04-15T07:38:25;5.88;;;5.43;;
17564;SDS011;62994;52.126;5.596;2023-04-15T07:40:52;5.50;;;5.10;;
17564;SDS011;62994;52.126;5.596;2023-04-15T07:43:19;6.38;;;5.93;;
17564;SDS011;62994;52.126;5.596;2023-04-15T07:45:48;5.63;;;5.32;;
17564;SDS011;62994;52.126;5.596;2023-04-15T07:48:15;5.60;;;5.20;;
17564;SDS011;62994;52.126;5.596;2023-04-15T07:50:42;5.10;;;4.80;;
17564;SDS011;62994;52.126;5.596;2023-04-15T07:53:09;5.82;;;5.53;;
17564;SDS011;62994;52.126;5.596;2023-04-15T07:55:36;6.20;;;5.80;;
17564;SDS011;62994;52.126;5.596;2023-04-15T07:58:03;6.32;;;5.82;;
17564;SDS011;62994;52.126;5.596;2023-04-15T08:00:30;6.57;;;6.00;;
17564;SDS011;62994;52.126;5.596;2023-04-15T08:02:58;7.07;;;6.43;;
17564;SDS011;62994;52.126;5.596;2023-04-15T08:05:26;6.88;;;6.47;;
17564;SDS011;62994;52.126;5.596;2023-04-15T08:07:53;6.72;;;6.18;;
17564;SDS011;62994;52.126;5.596;2023-04-15T08:10:20;6.82;;;6.32;;
17564;SDS011;62994;52.126;5.596;2023-04-15T08:12:47;6.50;;;6.10;;
17564;SDS011;62994;52.126;5.596;2023-04-15T08:15:18;6.38;;;5.78;;
17564;SDS011;62994;52.126;5.596;2023-04-15T08:17:45;6.22;;;5.80;;
17564;SDS011;62994;52.126;5.596;2023-04-15T08:20:14;5.97;;;5.47;;
17564;SDS011;62994;52.126;5.596;2023-04-15T08:22:41;5.82;;;5.43;;
17564;SDS011;62994;52.126;5.596;2023-04-15T08:25:09;4.90;;;4.60;;
17564;SDS011;62994;52.126;5.596;2023-04-15T08:27:36;4.75;;;4.45;;
17564;SDS011;62994;52.126;5.596;2023-04-15T08:30:03;5.32;;;5.03;;
17564;SDS011;62994;52.126;5.596;2023-04-15T08:32:31;4.97;;;4.68;;
17564;SDS011;62994;52.126;5.596;2023-04-15T08:34:58;4.90;;;4.60;;
17564;SDS011;62994;52.126;5.596;2023-04-15T08:37:27;4.63;;;4.32;;
17564;SDS011;62994;52.126;5.596;2023-04-15T08:39:54;4.47;;;4.18;;
17564;SDS011;62994;52.126;5.596;2023-04-15T08:42:22;4.35;;;4.07;;
17564;SDS011;62994;52.126;5.596;2023-04-15T08:44:53;4.20;;;4.00;;
17564;SDS011;62994;52.126;5.596;2023-04-15T08:47:21;3.97;;;3.78;;
17564;SDS011;62994;52.126;5.596;2023-04-15T08:49:52;3.80;;;3.50;;
17564;SDS011;62994;52.126;5.596;2023-04-15T08:52:22;4.57;;;4.18;;
17564;SDS011;62994;52.126;5.596;2023-04-15T08:54:53;3.67;;;3.45;;
17564;SDS011;62994;52.126;5.596;2023-04-15T08:57:23;3.63;;;3.42;;
17564;SDS011;62994;52.126;5.596;2023-04-15T08:59:51;4.13;;;3.80;;
17564;SDS011;62994;52.126;5.596;2023-04-15T09:02:19;3.47;;;3.28;;
17564;SDS011;62994;52.126;5.596;2023-04-15T09:04:49;3.80;;;3.50;;
17564;SDS011;62994;52.126;5.596;2023-04-15T09:07:19;3.65;;;3.45;;
17564;SDS011;62994;52.126;5.596;2023-04-15T09:09:47;3.35;;;3.10;;
17564;SDS011;62994;52.126;5.596;2023-04-15T09:12:15;3.63;;;3.42;;
17564;SDS011;62994;52.126;5.596;2023-04-15T09:14:47;4.15;;;3.30;;
17564;SDS011;62994;52.126;5.596;2023-04-15T09:17:24;2.75;;;2.65;;
17564;SDS011;62994;52.126;5.596;2023-04-15T09:20:09;3.15;;;2.95;;
17564;SDS011;62994;52.126;5.596;2023-04-15T09:22:38;2.65;;;2.45;;
17564;SDS011;62994;52.126;5.596;2023-04-15T09:27:54;2.72;;;2.53;;
17564;SDS011;62994;52.126;5.596;2023-04-15T09:30:23;3.00;;;2.80;;
17564;SDS011;62994;52.126;5.596;2023-04-15T09:32:51;4.18;;;2.85;;
17564;SDS011;62994;52.126;5.596;2023-04-15T09:35:24;2.67;;;2.47;;
17564;SDS011;62994;52.126;5.596;2023-04-15T09:37:52;2.88;;;2.45;;
17564;SDS011;62994;52.126;5.596;2023-04-15T09:40:31;2.30;;;2.20;;
17564;SDS011;62994;52.126;5.596;2023-04-15T09:43:00;2.42;;;2.33;;
17564;SDS011;62994;52.126;5.596;2023-04-15T09:45:28;2.33;;;2.22;;
17564;SDS011;62994;52.126;5.596;2023-04-15T09:47:55;2.83;;;2.20;;
17564;SDS011;62994;52.126;5.596;2023-04-15T09:50:25;2.05;;;1.95;;
17564;SDS011;62994;52.126;5.596;2023-04-15T09:52:53;3.05;;;1.70;;
17564;SDS011;62994;52.126;5.596;2023-04-15T09:55:21;2.13;;;2.03;;
17564;SDS011;62994;52.126;5.596;2023-04-15T09:57:48;3.13;;;1.63;;
17564;SDS011;62994;52.126;5.596;2023-04-15T10:00:16;1.73;;;1.63;;
17564;SDS011;62994;52.126;5.596;2023-04-15T10:02:43;4.63;;;2.10;;
17564;SDS011;62994;52.126;5.596;2023-04-15T10:05:13;4.63;;;2.00;;
17564;SDS011;62994;52.126;5.596;2023-04-15T10:07:40;2.95;;;1.80;;
17564;SDS011;62994;52.126;5.596;2023-04-15T10:10:08;2.05;;;1.95;;
17564;SDS011;62994;52.126;5.596;2023-04-15T10:12:37;2.40;;;2.30;;
17564;SDS011;62994;52.126;5.596;2023-04-15T10:15:06;2.25;;;1.80;;
17564;SDS011;62994;52.126;5.596;2023-04-15T10:17:40;2.40;;;2.20;;
17564;SDS011;62994;52.126;5.596;2023-04-15T10:20:11;2.22;;;2.13;;
17564;SDS011;62994;52.126;5.596;2023-04-15T10:22:39;2.80;;;2.60;;
17564;SDS011;62994;52.126;5.596;2023-04-15T10:25:07;2.70;;;2.60;;
17564;SDS011;62994;52.126;5.596;2023-04-15T10:27:35;2.60;;;2.50;;
17564;SDS011;62994;52.126;5.596;2023-04-15T10:30:05;2.50;;;2.40;;
17564;SDS011;62994;52.126;5.596;2023-04-15T10:32:33;3.88;;;2.70;;
17564;SDS011;62994;52.126;5.596;2023-04-15T10:35:01;3.28;;;2.47;;
17564;SDS011;62994;52.126;5.596;2023-04-15T10:37:34;2.95;;;2.75;;
17564;SDS011;62994;52.126;5.596;2023-04-15T10:42:51;2.90;;;2.70;;
17564;SDS011;62994;52.126;5.596;2023-04-15T10:45:18;4.10;;;2.80;;
17564;SDS011;62994;52.126;5.596;2023-04-15T10:47:45;2.50;;;2.40;;
17564;SDS011;62994;52.126;5.596;2023-04-15T10:50:19;2.45;;;2.35;;
17564;SDS011;62994;52.126;5.596;2023-04-15T10:52:48;2.35;;;2.25;;
17564;SDS011;62994;52.126;5.596;2023-04-15T10:55:18;2.47;;;2.35;;
17564;SDS011;62994;52.126;5.596;2023-04-15T10:57:46;1.80;;;1.80;;
17564;SDS011;62994;52.126;5.596;2023-04-15T11:00:18;2.58;;;2.40;;
17564;SDS011;62994;52.126;5.596;2023-04-15T11:02:47;2.60;;;2.50;;
17564;SDS011;62994;52.126;5.596;2023-04-15T11:05:20;2.38;;;2.28;;
17564;SDS011;62994;52.126;5.596;2023-04-15T11:07:53;2.42;;;2.22;;
17564;SDS011;62994;52.126;5.596;2023-04-15T11:13:22;2.20;;;2.10;;
17564;SDS011;62994;52.126;5.596;2023-04-15T11:16:02;2.42;;;2.22;;
17564;SDS011;62994;52.126;5.596;2023-04-15T11:18:29;2.10;;;2.00;;
17564;SDS011;62994;52.126;5.596;2023-04-15T11:21:00;2.20;;;2.10;;
17564;SDS011;62994;52.126;5.596;2023-04-15T11:23:35;2.25;;;2.05;;
17564;SDS011;62994;52.126;5.596;2023-04-15T11:26:04;2.13;;;2.03;;
17564;SDS011;62994;52.126;5.596;2023-04-15T11:28:33;2.33;;;2.13;;
17564;SDS011;62994;52.126;5.596;2023-04-15T11:31:05;1.90;;;1.80;;
17564;SDS011;62994;52.126;5.596;2023-04-15T11:33:44;2.67;;;1.83;;
17564;SDS011;62994;52.126;5.596;2023-04-15T11:36:13;2.15;;;1.80;;
17564;SDS011;62994;52.126;5.596;2023-04-15T11:38:44;2.03;;;1.75;;
17564;SDS011;62994;52.126;5.596;2023-04-15T11:41:12;1.92;;;1.83;;
17564;SDS011;62994;52.126;5.596;2023-04-15T11:43:39;4.55;;;2.03;;
17564;SDS011;62994;52.126;5.596;2023-04-15T11:46:07;1.88;;;1.77;;
17564;SDS011;62994;52.126;5.596;2023-04-15T11:48:41;3.20;;;2.45;;
17564;SDS011;62994;52.126;5.596;2023-04-15T11:51:09;2.60;;;2.33;;
17564;SDS011;62994;52.126;5.596;2023-04-15T11:53:40;3.20;;;1.80;;
17564;SDS011;62994;52.126;5.596;2023-04-15T11:56:08;3.13;;;1.95;;
17564;SDS011;62994;52.126;5.596;2023-04-15T11:58:41;2.70;;;2.50;;
17564;SDS011;62994;52.126;5.596;2023-04-15T12:01:10;2.47;;;2.20;;
17564;SDS011;62994;52.126;5.596;2023-04-15T12:03:38;2.13;;;2.03;;
17564;SDS011;62994;52.126;5.596;2023-04-15T12:06:10;2.50;;;2.30;;
17564;SDS011;62994;52.126;5.596;2023-04-15T12:08:55;3.63;;;1.70;;
17564;SDS011;62994;52.126;5.596;2023-04-15T12:11:29;2.05;;;1.95;;
17564;SDS011;62994;52.126;5.596;2023-04-15T12:14:04;1.90;;;1.80;;
17564;SDS011;62994;52.126;5.596;2023-04-15T12:16:33;1.70;;;1.60;;
17564;SDS011;62994;52.126;5.596;2023-04-15T12:19:04;1.83;;;1.73;;
17564;SDS011;62994;52.126;5.596;2023-04-15T12:21:33;2.58;;;1.70;;
17564;SDS011;62994;52.126;5.596;2023-04-15T12:24:04;1.75;;;1.60;;
17564;SDS011;62994;52.126;5.596;2023-04-15T12:26:34;1.60;;;1.17;;
17564;SDS011;62994;52.126;5.596;2023-04-15T12:29:03;2.03;;;1.50;;
17564;SDS011;62994;52.126;5.596;2023-04-15T12:31:31;1.80;;;1.30;;
17564;SDS011;62994;52.126;5.596;2023-04-15T12:33:58;1.10;;;1.10;;
17564;SDS011;62994;52.126;5.596;2023-04-15T12:36:26;1.50;;;1.35;;
17564;SDS011;62994;52.126;5.596;2023-04-15T12:38:54;2.22;;;1.60;;
17564;SDS011;62994;52.126;5.596;2023-04-15T12:41:22;1.70;;;1.60;;
17564;SDS011;62994;52.126;5.596;2023-04-15T12:43:49;2.97;;;1.30;;
17564;SDS011;62994;52.126;5.596;2023-04-15T12:46:16;1.08;;;1.00;;
17564;SDS011;62994;52.126;5.596;2023-04-15T12:48:44;1.55;;;1.45;;
17564;SDS011;62994;52.126;5.596;2023-04-15T12:51:11;2.38;;;1.50;;
17564;SDS011;62994;52.126;5.596;2023-04-15T12:53:38;1.50;;;1.40;;
17564;SDS011;62994;52.126;5.596;2023-04-15T12:56:05;1.40;;;1.30;;
17564;SDS011;62994;52.126;5.596;2023-04-15T12:58:34;1.40;;;1.30;;
17564;SDS011;62994;52.126;5.596;2023-04-15T13:01:01;1.27;;;1.17;;
17564;SDS011;62994;52.126;5.596;2023-04-15T13:03:28;1.15;;;1.10;;
17564;SDS011;62994;52.126;5.596;2023-04-15T13:05:55;2.92;;;1.10;;
17564;SDS011;62994;52.126;5.596;2023-04-15T13:08:27;1.35;;;1.20;;
17564;SDS011;62994;52.126;5.596;2023-04-15T13:10:54;1.27;;;1.27;;
17564;SDS011;62994;52.126;5.596;2023-04-15T13:13:21;1.30;;;1.20;;
17564;SDS011;62994;52.126;5.596;2023-04-15T13:15:50;1.33;;;1.17;;
17564;SDS011;62994;52.126;5.596;2023-04-15T13:18:17;1.52;;;1.33;;
17564;SDS011;62994;52.126;5.596;2023-04-15T13:20:44;1.52;;;1.20;;
17564;SDS011;62994;52.126;5.596;2023-04-15T13:23:11;1.25;;;1.25;;
17564;SDS011;62994;52.126;5.596;2023-04-15T13:25:37;1.10;;;1.00;;
17564;SDS011;62994;52.126;5.596;2023-04-15T13:28:05;1.00;;;1.00;;
17564;SDS011;62994;52.126;5.596;2023-04-15T13:30:32;1.88;;;1.38;;
17564;SDS011;62994;52.126;5.596;2023-04-15T13:33:00;1.45;;;1.20;;
17564;SDS011;62994;52.126;5.596;2023-04-15T13:35:27;1.20;;;1.10;;
17564;SDS011;62994;52.126;5.596;2023-04-15T13:37:54;1.48;;;1.10;;
17564;SDS011;62994;52.126;5.596;2023-04-15T13:40:21;1.10;;;1.10;;
17564;SDS011;62994;52.126;5.596;2023-04-15T13:42:48;1.25;;;1.00;;
17564;SDS011;62994;52.126;5.596;2023-04-15T13:45:16;3.42;;;1.30;;
17564;SDS011;62994;52.126;5.596;2023-04-15T13:47:43;0.98;;;0.95;;
17564;SDS011;62994;52.126;5.596;2023-04-15T13:50:11;7.65;;;1.38;;
17564;SDS011;62994;52.126;5.596;2023-04-15T13:52:38;2.80;;;1.13;;
17564;SDS011;62994;52.126;5.596;2023-04-15T13:55:05;1.02;;;1.02;;
17564;SDS011;62994;52.126;5.596;2023-04-15T13:57:33;4.78;;;1.30;;
17564;SDS011;62994;52.126;5.596;2023-04-15T14:00:00;1.10;;;1.10;;
17564;SDS011;62994;52.126;5.596;2023-04-15T14:02:28;0.80;;;0.80;;
17564;SDS011;62994;52.126;5.596;2023-04-15T14:04:55;1.33;;;1.33;;
17564;SDS011;62994;52.126;5.596;2023-04-15T14:07:24;1.55;;;1.45;;
17564;SDS011;62994;52.126;5.596;2023-04-15T14:09:51;2.60;;;1.50;;
17564;SDS011;62994;52.126;5.596;2023-04-15T14:12:18;1.48;;;1.02;;
17564;SDS011;62994;52.126;5.596;2023-04-15T14:14:45;1.25;;;1.17;;
17564;SDS011;62994;52.126;5.596;2023-04-15T14:17:12;1.50;;;1.05;;
17564;SDS011;62994;52.126;5.596;2023-04-15T14:19:39;1.45;;;1.35;;
17564;SDS011;62994;52.126;5.596;2023-04-15T14:22:06;1.40;;;1.30;;
17564;SDS011;62994;52.126;5.596;2023-04-15T14:24:34;2.95;;;1.27;;
17564;SDS011;62994;52.126;5.596;2023-04-15T14:27:01;2.25;;;1.60;;
17564;SDS011;62994;52.126;5.596;2023-04-15T14:29:28;1.65;;;1.10;;
17564;SDS011;62994;52.126;5.596;2023-04-15T14:31:55;1.42;;;1.30;;
17564;SDS011;62994;52.126;5.596;2023-04-15T14:34:23;1.63;;;1.33;;
17564;SDS011;62994;52.126;5.596;2023-04-15T14:36:50;1.38;;;1.30;;
17564;SDS011;62994;52.126;5.596;2023-04-15T14:39:17;3.30;;;1.42;;
17564;SDS011;62994;52.126;5.596;2023-04-15T14:41:46;2.30;;;1.50;;
17564;SDS011;62994;52.126;5.596;2023-04-15T14:44:13;2.63;;;1.50;;
17564;SDS011;62994;52.126;5.596;2023-04-15T14:46:40;1.48;;;1.38;;
17564;SDS011;62994;52.126;5.596;2023-04-15T14:49:07;1.70;;;1.60;;
17564;SDS011;62994;52.126;5.596;2023-04-15T14:51:34;2.15;;;1.38;;
17564;SDS011;62994;52.126;5.596;2023-04-15T14:54:01;2.75;;;1.50;;
17564;SDS011;62994;52.126;5.596;2023-04-15T14:56:27;2.03;;;1.50;;
17564;SDS011;62994;52.126;5.596;2023-04-15T14:58:56;3.83;;;1.80;;
17564;SDS011;62994;52.126;5.596;2023-04-15T15:01:23;4.35;;;1.55;;